Time;durP1;ratioP1;P1;durP2;ratioP2;P2;SDS_P1;SDS_P2;PMS_P1;PMS_P2;Temp;Humidity;BMP_temperature;BMP_pressure;BME280_temperature;BME280_humidity;BME280_pressure;Samples;Min_cycle;Max_cycle;Signal;HPM_P1;HPM_P2
2022/06/20 00:27:06;;;;;;;1.13;0.50;;;13.90;99.90;;;;;;6190773;23;20021;-93
2022/06/20 00:29:37;;;;;;;1.20;0.55;;;13.90;99.90;;;;;;6165555;23;20422;-94
2022/06/20 00:32:09;;;;;;;1.17;0.50;;;13.90;99.90;;;;;;6168522;23;20442;-92
2022/06/20 00:38:32;;;;;;;1.27;0.50;;;13.90;99.90;;;;;;6196827;23;20469;-96
2022/06/20 00:41:01;;;;;;;1.65;0.52;;;13.90;99.90;;;;;;6166713;23;20017;-92
2022/06/20 00:51:37;;;;;;;1.70;0.40;;;13.80;99.90;;;;;;6218447;22;20446;-96
2022/06/20 03:40:56;;;;;;;1.48;0.60;;;12.30;99.90;;;;;;6189656;22;20025;-93
2022/06/20 03:43:24;;;;;;;2.17;0.87;;;12.30;99.90;;;;;;6160990;23;20021;-93
2022/06/20 03:46:03;;;;;;;1.98;0.90;;;12.30;99.90;;;;;;6160387;23;20582;-93
2022/06/20 03:48:55;;;;;;;2.30;0.80;;;12.30;99.90;;;;;;6160454;23;20013;-94
2022/06/20 03:51:24;;;;;;;1.88;0.65;;;12.30;99.90;;;;;;6160600;23;20021;-93
2022/06/20 05:47:11;;;;;;;2.28;0.90;;;14.60;99.90;;;;;;6274929;22;20028;-88
2022/06/20 05:49:46;;;;;;;2.88;1.00;;;14.50;99.90;;;;;;6226165;22;20028;-88
2022/06/20 05:52:18;;;;;;;3.58;1.38;;;14.50;99.90;;;;;;6251387;22;20019;-91
2022/06/20 05:54:57;;;;;;;5.43;1.95;;;14.50;99.90;;;;;;6226238;22;20015;-91
2022/06/20 05:57:26;;;;;;;2.97;1.25;;;14.60;99.90;;;;;;6251355;22;20445;-92
2022/06/20 05:59:53;;;;;;;3.35;1.00;;;14.70;99.90;;;;;;6226394;22;20019;-92
2022/06/20 06:02:44;;;;;;;4.60;1.70;;;14.80;99.90;;;;;;6227102;22;20012;-93
2022/06/20 06:05:31;;;;;;;4.25;1.40;;;14.90;99.90;;;;;;6225465;22;20015;-90
2022/06/20 06:07:59;;;;;;;2.95;1.17;;;15.00;99.90;;;;;;6251295;22;20062;-90
2022/06/20 06:10:32;;;;;;;3.60;1.17;;;15.10;99.90;;;;;;6226695;22;20016;-91
2022/06/20 06:13:08;;;;;;;4.40;1.13;;;15.20;99.90;;;;;;6232921;22;20349;-90
2022/06/20 10:14:55;;;;;;;0.80;0.43;;;16.80;99.90;;;;;;6283600;22;20020;-90
2022/06/20 10:18:11;;;;;;;2.42;0.65;;;16.80;99.90;;;;;;6233055;22;20020;-92
2022/06/20 10:20:51;;;;;;;2.40;0.50;;;16.70;99.90;;;;;;6250777;22;20046;-92
2022/06/20 10:23:17;;;;;;;1.95;0.57;;;16.80;99.90;;;;;;6232755;22;20410;-92
2022/06/20 10:36:27;;;;;;;1.63;0.70;;;17.00;99.90;;;;;;6197312;22;20021;-92
2022/06/20 10:39:08;;;;;;;3.35;0.60;;;17.10;99.90;;;;;;6169452;23;20021;-93
2022/06/20 12:55:33;;;;;;;4.15;1.05;;;18.50;99.90;;;;;;6279534;22;20912;-95
2022/06/20 14:27:19;;;;;;;1.52;0.60;;;17.20;99.90;;;;;;6202537;22;20029;-93
2022/06/20 14:29:57;;;;;;;1.92;0.80;;;17.20;99.90;;;;;;6164567;23;20025;-91
2022/06/20 14:51:07;;;;;;;3.00;0.80;;;16.90;99.90;;;;;;6190086;22;20512;-92
2022/06/20 14:53:48;;;;;;;3.05;0.98;;;16.80;99.90;;;;;;6138888;23;20017;-92
2022/06/20 15:22:28;;;;;;;1.73;0.80;;;17.50;99.90;;;;;;6216476;22;20017;-90
2022/06/20 15:31:41;;;;;;;3.00;1.13;;;17.60;99.90;;;;;;6192058;23;20028;-94
2022/06/20 15:34:39;;;;;;;2.28;0.90;;;17.60;99.90;;;;;;6197337;23;20025;-94
2022/06/20 15:37:10;;;;;;;;;;;17.60;99.90;;;;;;6190403;23;20098;-92
2022/06/20 15:40:58;;;;;;;;;;;;;;;;;;;;;
2022/06/20 16:30:27;;;;;;;2.55;0.80;;;16.90;99.90;;;;;;6214299;23;20044;-90
2022/06/20 16:33:13;;;;;;;2.42;0.60;;;16.90;99.90;;;;;;6184740;23;20021;-90
2022/06/20 16:35:41;;;;;;;1.42;0.68;;;16.90;99.90;;;;;;6183744;23;20075;-89
2022/06/20 16:38:16;;;;;;;2.58;0.50;;;16.80;99.90;;;;;;6159279;23;20028;-90
2022/06/20 16:41:17;;;;;;;2.22;0.60;;;16.70;99.90;;;;;;6159703;23;20139;-89
2022/06/20 16:43:53;;;;;;;2.58;0.50;;;16.70;99.90;;;;;;6185175;23;20025;-93
2022/06/20 16:46:36;;;;;;;1.27;0.50;;;16.70;99.90;;;;;;6159589;23;20036;-90
2022/06/20 16:49:11;;;;;;;1.33;0.40;;;16.80;99.90;;;;;;6159404;23;20043;-94
2022/06/20 16:52:06;;;;;;;0.80;0.40;;;16.80;99.90;;;;;;6184569;23;20047;-93
2022/06/20 16:54:37;;;;;;;1.75;0.30;;;16.80;99.90;;;;;;6184485;23;20107;-93
2022/06/20 16:57:13;;;;;;;1.42;0.52;;;16.80;99.90;;;;;;6160794;23;20017;-96
2022/06/20 16:59:53;;;;;;;1.25;0.45;;;16.80;99.90;;;;;;6160949;23;20017;-91
2022/06/20 17:28:31;;;;;;;1.60;0.40;;;16.80;99.90;;;;;;6189036;22;20469;-90
2022/06/20 17:36:14;;;;;;;1.08;0.40;;;16.80;99.90;;;;;;6222615;22;20027;-91
2022/06/20 17:42:46;;;;;;;1.40;0.43;;;16.60;99.90;;;;;;6218588;23;20059;-91
2022/06/20 17:45:39;;;;;;;1.50;0.30;;;16.50;99.90;;;;;;6190984;23;20021;-91
2022/06/20 17:48:38;;;;;;;1.38;0.45;;;16.50;99.90;;;;;;6191088;23;20021;-92
2022/06/20 17:54:41;;;;;;;3.00;1.02;;;16.50;99.90;;;;;;6206917;23;20021;-94
2022/06/20 17:57:28;;;;;;;1.75;0.40;;;16.40;99.90;;;;;;6190560;23;20630;-95
2022/06/20 18:00:15;;;;;;;1.20;0.50;;;16.40;99.90;;;;;;6191679;23;20342;-95
2022/06/20 18:02:59;;;;;;;2.25;0.40;;;16.30;99.90;;;;;;6190999;23;20020;-94
2022/06/20 18:05:32;;;;;;;4.45;0.80;;;16.30;99.90;;;;;;6191077;23;20440;-95
2022/06/20 18:08:18;;;;;;;1.27;0.30;;;16.30;99.90;;;;;;6191086;23;20051;-95
2022/06/20 20:14:21;;;;;;;3.08;0.40;;;15.30;99.90;;;;;;6216332;22;20021;-93
2022/06/20 20:34:29;;;;;;;2.08;0.65;;;14.90;99.90;;;;;;6131016;23;20418;-94
2022/06/20 20:37:42;;;;;;;1.65;0.40;;;14.80;99.90;;;;;;6130647;23;20014;-93
2022/06/20 21:35:08;;;;;;;2.63;0.60;;;14.10;99.90;;;;;;6240800;22;20055;-95
2022/06/20 21:37:35;;;;;;;1.92;0.50;;;14.00;99.90;;;;;;6189910;23;20024;-94
2022/06/20 22:44:24;;;;;;;5.22;1.45;;;13.70;99.90;;;;;;6277537;22;20396;-92
2022/06/20 22:56:45;;;;;;;2.53;0.80;;;13.80;99.90;;;;;;6192779;23;20025;-93
2022/06/20 23:00:00;;;;;;;3.17;0.63;;;13.90;99.90;;;;;;6028959;23;20029;-92
2022/06/20 23:20:51;;;;;;;1.88;0.50;;;13.90;99.90;;;;;;6247012;22;20024;-91
2022/06/20 23:23:37;;;;;;;1.92;0.63;;;13.90;99.90;;;;;;6196137;23;20449;-91
2022/06/20 23:27:20;;;;;;;1.95;0.60;;;13.80;99.90;;;;;;6195569;23;20012;-91
2022/06/20 23:29:46;;;;;;;1.73;0.52;;;13.70;99.90;;;;;;6100775;23;20018;-91
2022/06/20 23:32:17;;;;;;;2.92;0.80;;;13.70;99.90;;;;;;6077039;23;20028;-92
2022/06/20 23:34:46;;;;;;;1.90;0.70;;;13.70;99.90;;;;;;6168564;23;20054;-92
2022/06/20 23:37:16;;;;;;;2.17;0.70;;;13.60;99.90;;;;;;6195550;23;20035;-92
2022/06/20 23:39:43;;;;;;;1.27;0.50;;;13.60;99.90;;;;;;6195923;23;20016;-91
2022/06/20 23:42:11;;;;;;;2.45;0.70;;;13.60;99.90;;;;;;6195498;23;20016;-91
2022/06/20 23:44:44;;;;;;;2.65;0.70;;;13.50;99.90;;;;;;6195276;23;20508;-91
2022/06/20 23:47:22;;;;;;;2.60;0.75;;;13.50;99.90;;;;;;6195486;23;20102;-92
2022/06/20 23:49:47;;;;;;;3.58;0.70;;;13.50;99.90;;;;;;6195352;23;20016;-92
2022/06/20 23:52:17;;;;;;;1.83;0.80;;;13.40;99.90;;;;;;6195522;23;20020;-91
2022/06/20 23:54:43;;;;;;;1.92;0.70;;;13.30;99.90;;;;;;6195220;23;20247;-91
2022/06/20 23:57:20;;;;;;;1.38;0.60;;;13.30;99.90;;;;;;6196092;23;20012;-93
2022/06/20 23:59:47;;;;;;;1.40;0.70;;;13.20;99.90;;;;;;6212662;22;20011;-91
